Time;durP1;ratioP1;P1;durP2;ratioP2;P2;SDS_P1;SDS_P2;PMS_P1;PMS_P2;Temp;Humidity;BMP_temperature;BMP_pressure;BME280_temperature;BME280_humidity;BME280_pressure;Samples;Min_cycle;Max_cycle;Signal;HPM_P1;HPM_P2
2023/05/22 00:00:01;;;;;;;16.85;12.18;;;17.00;99.90;;;;;;5076153;28;20036;-83
2023/05/22 00:02:28;;;;;;;16.38;11.85;;;17.00;99.90;;;;;;5076188;28;20493;-83
2023/05/22 00:04:57;;;;;;;16.55;11.98;;;17.00;99.90;;;;;;5075872;28;20041;-83
2023/05/22 00:07:26;;;;;;;17.23;12.63;;;16.90;99.90;;;;;;5076988;28;20127;-83
2023/05/22 00:09:52;;;;;;;17.05;12.25;;;16.90;99.90;;;;;;5059919;28;20045;-83
2023/05/22 00:12:19;;;;;;;19.23;12.38;;;16.90;99.90;;;;;;5059076;28;20492;-83
2023/05/22 00:14:46;;;;;;;16.90;12.55;;;16.90;99.90;;;;;;5059375;28;20040;-83
2023/05/22 00:17:13;;;;;;;18.10;12.20;;;16.90;99.90;;;;;;5059459;28;20496;-82
2023/05/22 00:19:40;;;;;;;16.35;12.75;;;16.90;99.90;;;;;;5075733;28;20451;-82
2023/05/22 00:22:08;;;;;;;21.15;11.68;;;16.90;99.90;;;;;;5092510;28;20044;-83
2023/05/22 00:24:35;;;;;;;18.95;12.60;;;16.90;99.90;;;;;;5074729;28;20079;-83
2023/05/22 00:27:01;;;;;;;17.63;11.70;;;16.90;99.90;;;;;;5072205;28;20056;-83
2023/05/22 00:29:28;;;;;;;18.63;12.05;;;16.90;99.90;;;;;;5039577;28;20040;-85
2023/05/22 00:31:55;;;;;;;15.82;12.32;;;16.80;99.90;;;;;;5039471;28;20135;-83
2023/05/22 00:34:21;;;;;;;19.10;12.35;;;16.90;99.90;;;;;;5052201;28;20032;-83
2023/05/22 00:36:48;;;;;;;17.95;11.77;;;16.80;99.90;;;;;;5058355;28;20041;-83
2023/05/22 00:39:15;;;;;;;19.20;12.27;;;16.80;99.90;;;;;;5074269;28;20043;-84
2023/05/22 00:41:42;;;;;;;19.00;12.75;;;16.80;99.90;;;;;;5059288;28;20040;-83
2023/05/22 00:44:10;;;;;;;16.10;12.50;;;16.80;99.90;;;;;;5075276;28;20050;-83
2023/05/22 00:46:37;;;;;;;15.13;11.90;;;16.70;99.90;;;;;;5075823;28;20037;-84
2023/05/22 00:49:04;;;;;;;16.98;12.70;;;16.70;99.90;;;;;;5075333;28;20051;-83
2023/05/22 00:51:31;;;;;;;16.67;11.63;;;16.70;99.90;;;;;;5058854;28;20040;-83
2023/05/22 00:53:57;;;;;;;17.58;12.85;;;16.70;99.90;;;;;;5075101;28;20040;-83
2023/05/22 00:56:25;;;;;;;17.65;11.82;;;16.70;99.90;;;;;;5058969;28;20040;-83
2023/05/22 00:58:52;;;;;;;20.17;12.57;;;16.60;99.90;;;;;;5059014;28;20123;-83
2023/05/22 01:01:19;;;;;;;15.98;11.50;;;16.60;99.90;;;;;;5075495;28;20127;-83
2023/05/22 01:03:46;;;;;;;16.92;13.30;;;16.60;99.90;;;;;;5075291;28;20032;-82
2023/05/22 01:06:14;;;;;;;15.13;11.57;;;16.60;99.90;;;;;;5058806;28;20489;-83
2023/05/22 01:08:41;;;;;;;16.98;12.43;;;16.60;99.90;;;;;;5091806;28;20079;-83
2023/05/22 01:11:24;;;;;;;15.35;11.07;;;16.60;99.90;;;;;;5091460;28;20037;-83
2023/05/22 01:14:02;;;;;;;16.52;12.05;;;16.50;99.90;;;;;;5106603;28;20497;-82
2023/05/22 01:16:45;;;;;;;19.60;12.80;;;16.50;99.90;;;;;;5091698;28;20039;-83
2023/05/22 01:19:34;;;;;;;21.60;12.95;;;16.50;99.90;;;;;;5108228;28;20036;-83
2023/05/22 01:22:29;;;;;;;18.90;12.32;;;16.50;99.90;;;;;;5091092;28;20040;-83
2023/05/22 01:25:01;;;;;;;14.77;11.85;;;16.50;99.90;;;;;;5077129;28;20124;-83
2023/05/22 01:27:34;;;;;;;19.30;12.93;;;16.50;99.90;;;;;;5071216;28;20047;-83
2023/05/22 01:30:22;;;;;;;17.95;12.00;;;16.40;99.90;;;;;;5086833;28;20045;-83
2023/05/22 01:32:51;;;;;;;18.05;12.57;;;16.40;99.90;;;;;;5070850;28;20049;-83
2023/05/22 01:35:20;;;;;;;17.48;12.52;;;16.40;99.90;;;;;;5087124;28;20048;-83
2023/05/22 01:37:47;;;;;;;16.63;12.65;;;16.40;99.90;;;;;;5071285;28;20133;-83
2023/05/22 01:40:14;;;;;;;17.98;12.75;;;16.40;99.90;;;;;;5090367;28;20040;-83
2023/05/22 01:42:41;;;;;;;17.40;13.23;;;16.30;99.90;;;;;;5074070;28;20051;-82
2023/05/22 01:45:10;;;;;;;16.20;12.13;;;16.30;99.90;;;;;;5053543;28;20076;-83
2023/05/22 01:47:37;;;;;;;16.65;12.18;;;16.30;99.90;;;;;;5070659;28;20107;-83
2023/05/22 01:50:04;;;;;;;15.73;12.13;;;16.30;99.90;;;;;;5054376;28;20041;-83
2023/05/22 01:52:51;;;;;;;17.15;13.02;;;16.30;99.90;;;;;;5070656;28;20049;-83
2023/05/22 01:55:28;;;;;;;16.60;12.90;;;16.30;99.90;;;;;;5086882;28;20449;-83
2023/05/22 01:58:11;;;;;;;15.57;12.27;;;16.20;99.90;;;;;;5070226;28;20096;-83
2023/05/22 02:00:42;;;;;;;19.27;12.82;;;16.20;99.90;;;;;;5070795;28;20508;-83
2023/05/22 02:03:22;;;;;;;15.55;12.88;;;16.30;99.90;;;;;;5087534;28;20528;-83
2023/05/22 02:05:53;;;;;;;17.13;12.65;;;16.30;99.90;;;;;;5078120;28;20489;-83
2023/05/22 02:08:21;;;;;;;16.33;12.60;;;16.20;99.90;;;;;;5090960;28;20102;-83
2023/05/22 02:10:50;;;;;;;16.15;12.55;;;16.20;99.90;;;;;;5090613;28;20404;-83
2023/05/22 02:13:17;;;;;;;19.02;12.75;;;16.20;99.90;;;;;;5090151;28;20048;-83
2023/05/22 02:15:45;;;;;;;17.80;13.50;;;16.20;99.90;;;;;;5070304;28;20848;-83
2023/05/22 02:18:12;;;;;;;17.67;11.82;;;16.20;99.90;;;;;;5053870;28;20489;-83
2023/05/22 02:20:40;;;;;;;18.55;12.68;;;16.20;99.90;;;;;;5053882;28;20047;-83
2023/05/22 02:23:07;;;;;;;16.15;12.25;;;16.20;99.90;;;;;;5086932;28;20041;-83
2023/05/22 02:25:34;;;;;;;18.63;13.10;;;16.20;99.90;;;;;;5069908;28;20076;-83
2023/05/22 02:28:00;;;;;;;17.77;13.05;;;16.20;99.90;;;;;;5089042;28;20036;-83
2023/05/22 02:30:27;;;;;;;17.38;13.27;;;16.10;99.90;;;;;;5073290;28;20076;-83
2023/05/22 02:32:56;;;;;;;18.88;12.73;;;16.20;99.90;;;;;;5073370;28;20041;-83
2023/05/22 02:35:22;;;;;;;17.80;12.95;;;16.10;99.90;;;;;;5074001;28;20036;-83
2023/05/22 02:37:49;;;;;;;19.20;12.95;;;16.10;99.90;;;;;;5075927;28;20033;-83
2023/05/22 02:40:16;;;;;;;17.92;13.40;;;16.20;99.90;;;;;;5070764;28;20120;-83
2023/05/22 02:42:43;;;;;;;24.27;13.30;;;16.10;99.90;;;;;;5057187;28;20079;-83
2023/05/22 02:45:10;;;;;;;18.92;13.75;;;16.10;99.90;;;;;;5056566;28;20040;-83
2023/05/22 02:47:36;;;;;;;18.05;14.13;;;16.10;99.90;;;;;;5089455;28;20087;-82
2023/05/22 02:50:03;;;;;;;20.30;14.93;;;16.10;99.90;;;;;;5089364;28;20049;-82
2023/05/22 02:52:30;;;;;;;18.30;12.85;;;16.10;99.90;;;;;;5089770;28;20677;-83
2023/05/22 02:54:57;;;;;;;20.88;14.23;;;16.20;99.90;;;;;;5089751;28;20051;-83
2023/05/22 02:57:23;;;;;;;20.33;13.57;;;16.20;99.90;;;;;;5056148;28;20137;-82
2023/05/22 02:59:51;;;;;;;17.23;13.13;;;16.20;99.90;;;;;;5056159;28;20048;-83
2023/05/22 03:02:18;;;;;;;24.30;14.27;;;16.30;99.90;;;;;;5072353;28;20493;-83
2023/05/22 03:04:50;;;;;;;22.45;14.98;;;16.30;99.90;;;;;;5090446;28;20047;-83
2023/05/22 03:07:19;;;;;;;22.77;14.68;;;16.30;99.90;;;;;;5056479;28;20036;-83
2023/05/22 03:09:45;;;;;;;20.13;14.43;;;16.30;99.90;;;;;;5056945;28;20471;-83
2023/05/22 03:12:12;;;;;;;20.20;15.10;;;16.40;99.90;;;;;;5055705;28;20128;-83
2023/05/22 03:14:39;;;;;;;20.23;14.65;;;16.30;99.90;;;;;;5056877;28;20040;-83
2023/05/22 03:17:05;;;;;;;20.50;14.70;;;16.40;99.90;;;;;;5089114;28;20127;-82
2023/05/22 03:19:32;;;;;;;17.30;13.60;;;16.30;99.90;;;;;;5056296;28;20032;-83
2023/05/22 03:21:59;;;;;;;21.63;15.30;;;16.30;99.90;;;;;;5072734;28;20040;-83
2023/05/22 03:24:26;;;;;;;17.80;14.05;;;16.30;99.90;;;;;;5055902;28;20052;-83
2023/05/22 03:26:52;;;;;;;21.23;14.10;;;16.30;99.90;;;;;;5056010;28;20036;-83
2023/05/22 03:29:19;;;;;;;19.52;13.55;;;16.20;99.90;;;;;;5071973;28;20560;-83
2023/05/22 03:31:46;;;;;;;17.55;13.80;;;16.20;99.90;;;;;;5056239;28;20059;-83
2023/05/22 03:34:13;;;;;;;18.45;14.43;;;16.20;99.90;;;;;;5088521;28;20040;-83
2023/05/22 03:36:40;;;;;;;18.50;13.65;;;16.20;99.90;;;;;;5072351;28;20033;-83
2023/05/22 03:39:07;;;;;;;18.25;14.13;;;16.20;99.90;;;;;;5105115;28;20037;-83
2023/05/22 03:41:33;;;;;;;17.50;13.63;;;16.20;99.90;;;;;;5088261;28;20499;-83
2023/05/22 03:44:02;;;;;;;19.42;14.32;;;16.20;99.90;;;;;;5072659;28;20033;-84
2023/05/22 03:46:28;;;;;;;21.30;14.55;;;16.20;99.90;;;;;;5088853;28;20032;-83
2023/05/22 03:48:55;;;;;;;18.17;13.50;;;16.20;99.90;;;;;;5087425;28;20090;-84
2023/05/22 03:51:22;;;;;;;21.30;14.10;;;16.10;99.90;;;;;;5056058;28;20037;-83
2023/05/22 03:53:48;;;;;;;19.25;13.93;;;16.10;99.90;;;;;;5072727;28;20123;-83
2023/05/22 03:56:15;;;;;;;17.02;13.05;;;16.10;99.90;;;;;;5105349;28;20037;-83
2023/05/22 03:58:42;;;;;;;17.83;13.90;;;16.10;99.90;;;;;;5072208;28;20060;-83
2023/05/22 04:01:10;;;;;;;17.27;13.65;;;16.10;99.90;;;;;;5089116;28;20428;-83
2023/05/22 04:03:36;;;;;;;18.52;14.02;;;16.10;99.90;;;;;;5089267;28;20531;-83
2023/05/22 04:06:04;;;;;;;17.58;13.63;;;16.10;99.90;;;;;;5056361;28;20121;-83
2023/05/22 04:08:31;;;;;;;17.88;13.90;;;16.10;99.90;;;;;;5072026;28;20051;-82
2023/05/22 04:10:57;;;;;;;18.00;13.95;;;16.10;99.90;;;;;;5052469;28;20045;-83
2023/05/22 04:13:25;;;;;;;18.50;14.13;;;16.10;99.90;;;;;;5054751;28;20060;-83
2023/05/22 04:15:52;;;;;;;19.30;13.80;;;16.10;99.90;;;;;;5072758;28;20039;-83
2023/05/22 04:18:19;;;;;;;18.52;13.05;;;16.20;99.90;;;;;;5059651;28;20040;-82
2023/05/22 04:20:46;;;;;;;19.73;13.63;;;16.20;99.90;;;;;;5076263;28;20037;-83
2023/05/22 04:23:13;;;;;;;20.75;14.18;;;16.20;99.90;;;;;;5076009;28;20095;-83
2023/05/22 04:25:39;;;;;;;19.02;14.00;;;16.30;99.90;;;;;;5092367;28;20044;-83
2023/05/22 04:28:08;;;;;;;18.83;13.80;;;16.30;99.90;;;;;;5075870;28;20233;-83
2023/05/22 04:30:36;;;;;;;20.58;15.25;;;16.30;99.90;;;;;;5059023;28;20447;-83
2023/05/22 04:33:04;;;;;;;20.65;14.52;;;16.30;99.90;;;;;;5075580;28;20413;-84
2023/05/22 04:35:31;;;;;;;21.20;14.55;;;16.30;99.90;;;;;;5091954;28;20086;-83
2023/05/22 04:38:00;;;;;;;17.88;14.48;;;16.40;99.90;;;;;;5059367;28;20044;-83
2023/05/22 04:40:32;;;;;;;22.98;15.65;;;16.40;99.90;;;;;;5075964;28;20036;-83
2023/05/22 04:43:00;;;;;;;20.25;15.07;;;16.40;99.90;;;;;;5109476;28;20473;-83
2023/05/22 04:45:27;;;;;;;25.92;15.35;;;16.40;99.90;;;;;;5091593;28;20048;-83
2023/05/22 04:47:58;;;;;;;20.08;15.18;;;16.40;99.90;;;;;;5075458;28;20489;-83
2023/05/22 04:50:25;;;;;;;23.58;14.85;;;16.40;99.90;;;;;;5060068;28;20040;-83
2023/05/22 04:52:52;;;;;;;20.85;15.70;;;16.40;99.90;;;;;;5071771;28;20043;-83
2023/05/22 04:55:19;;;;;;;23.15;15.75;;;16.40;99.90;;;;;;5052701;28;20519;-82
2023/05/22 04:57:46;;;;;;;22.70;15.05;;;16.40;99.90;;;;;;5058985;28;20076;-83
2023/05/22 05:00:14;;;;;;;20.67;15.68;;;16.40;99.90;;;;;;5058907;28;20048;-83
2023/05/22 05:02:41;;;;;;;23.55;15.70;;;16.40;99.90;;;;;;5092325;28;20040;-83
2023/05/22 05:05:08;;;;;;;22.35;16.02;;;16.50;99.90;;;;;;5075310;28;20488;-83
2023/05/22 05:07:38;;;;;;;21.13;15.73;;;16.40;99.90;;;;;;5108086;28;20040;-83
2023/05/22 05:10:06;;;;;;;21.75;17.02;;;16.40;99.90;;;;;;5074895;28;20091;-84
2023/05/22 05:12:32;;;;;;;25.60;16.35;;;16.40;99.90;;;;;;5058126;28;20036;-83
2023/05/22 05:14:59;;;;;;;24.13;16.58;;;16.40;99.90;;;;;;5058478;28;20036;-83
2023/05/22 05:17:26;;;;;;;22.45;16.85;;;16.40;99.90;;;;;;5058561;28;20032;-82
2023/05/22 05:19:53;;;;;;;26.30;17.35;;;16.30;99.90;;;;;;5058602;28;20178;-83
2023/05/22 05:22:19;;;;;;;25.98;17.02;;;16.30;99.90;;;;;;5074350;28;20040;-83
2023/05/22 05:24:46;;;;;;;24.17;16.33;;;16.30;99.90;;;;;;5073889;28;20139;-83
2023/05/22 05:27:14;;;;;;;26.17;17.75;;;16.20;99.90;;;;;;5058174;28;20048;-83
2023/05/22 05:29:41;;;;;;;29.73;17.67;;;16.30;99.90;;;;;;5090734;28;20119;-83
2023/05/22 05:32:10;;;;;;;23.58;17.27;;;16.20;99.90;;;;;;5074086;28;20078;-83
2023/05/22 05:34:36;;;;;;;25.85;17.30;;;16.10;99.90;;;;;;5057970;28;20044;-83
2023/05/22 05:37:04;;;;;;;25.48;17.55;;;16.20;99.90;;;;;;5074469;28;20043;-83
2023/05/22 05:39:31;;;;;;;23.65;17.27;;;16.10;99.90;;;;;;5090458;28;20098;-83
2023/05/22 05:41:58;;;;;;;22.83;16.42;;;16.10;99.90;;;;;;5091454;28;20048;-83
2023/05/22 05:44:25;;;;;;;24.83;17.38;;;16.20;99.90;;;;;;5090381;28;20481;-83
2023/05/22 05:46:52;;;;;;;24.83;16.60;;;16.20;99.90;;;;;;5078105;28;20049;-83
2023/05/22 05:49:19;;;;;;;21.88;16.77;;;16.10;99.90;;;;;;5060316;28;20040;-83
2023/05/22 05:51:46;;;;;;;23.23;14.73;;;16.20;99.90;;;;;;5090724;28;20488;-83
2023/05/22 05:54:12;;;;;;;21.63;16.02;;;16.20;99.90;;;;;;5057458;28;20032;-83
2023/05/22 05:56:39;;;;;;;24.17;14.95;;;16.20;99.90;;;;;;5057550;28;20083;-83
2023/05/22 05:59:06;;;;;;;20.80;14.38;;;16.20;99.90;;;;;;5073886;28;20059;-83
2023/05/22 06:01:34;;;;;;;20.77;14.45;;;16.20;99.90;;;;;;5073802;28;20386;-83
2023/05/22 06:04:02;;;;;;;20.02;14.25;;;16.30;99.90;;;;;;5067280;28;20094;-83
2023/05/22 06:06:34;;;;;;;20.17;13.70;;;16.20;99.90;;;;;;5037661;28;20037;-83
2023/05/22 06:09:04;;;;;;;19.67;14.07;;;16.30;99.90;;;;;;5087680;28;20555;-84
2023/05/22 06:11:32;;;;;;;19.90;14.13;;;16.30;99.90;;;;;;5038409;28;20045;-82
2023/05/22 06:13:59;;;;;;;21.45;14.68;;;16.30;99.90;;;;;;5054024;28;20044;-84
2023/05/22 06:16:27;;;;;;;20.77;14.23;;;16.30;99.90;;;;;;5070352;28;20119;-84
2023/05/22 06:18:55;;;;;;;21.30;14.00;;;16.30;99.90;;;;;;5106953;28;20127;-84
2023/05/22 06:21:23;;;;;;;21.70;14.65;;;16.30;99.90;;;;;;5074516;28;20044;-84
2023/05/22 06:23:50;;;;;;;18.98;13.48;;;16.30;99.90;;;;;;5090529;28;20044;-83
2023/05/22 06:26:17;;;;;;;18.20;13.38;;;16.30;99.90;;;;;;5063917;28;20072;-84
2023/05/22 06:28:44;;;;;;;21.10;13.63;;;16.30;99.90;;;;;;5059814;28;20123;-83
2023/05/22 06:31:11;;;;;;;19.65;12.65;;;16.30;99.90;;;;;;5088226;28;20113;-83
2023/05/22 06:33:39;;;;;;;20.10;13.60;;;16.30;99.90;;;;;;5073219;28;20052;-83
2023/05/22 06:36:07;;;;;;;22.35;13.77;;;16.30;99.90;;;;;;5072791;28;20753;-83
2023/05/22 06:38:36;;;;;;;20.20;12.98;;;16.20;99.90;;;;;;5086564;28;20139;-82
2023/05/22 06:41:03;;;;;;;20.67;13.20;;;16.20;99.90;;;;;;5060078;28;20044;-84
2023/05/22 06:43:30;;;;;;;20.23;12.65;;;16.20;99.90;;;;;;5064205;28;20075;-84
2023/05/22 06:45:57;;;;;;;20.40;11.95;;;16.20;99.90;;;;;;5037314;28;20075;-84
2023/05/22 06:48:24;;;;;;;23.95;12.63;;;16.20;99.90;;;;;;5069721;28;20041;-84
2023/05/22 06:50:50;;;;;;;19.48;12.88;;;16.10;99.90;;;;;;5043222;28;20097;-83
2023/05/22 06:53:17;;;;;;;19.52;11.77;;;16.20;99.90;;;;;;5045859;28;20044;-84
2023/05/22 06:55:44;;;;;;;20.17;12.60;;;16.10;99.90;;;;;;5064183;28;20032;-83
2023/05/22 06:58:10;;;;;;;17.50;12.00;;;16.10;99.90;;;;;;5050788;28;20396;-84
2023/05/22 07:00:37;;;;;;;20.35;12.80;;;16.10;99.90;;;;;;5042101;28;20561;-83
2023/05/22 07:03:05;;;;;;;18.00;12.13;;;16.10;99.90;;;;;;5064523;28;20102;-84
2023/05/22 07:05:32;;;;;;;18.52;11.85;;;16.10;99.90;;;;;;5037428;28;20063;-84
2023/05/22 07:07:59;;;;;;;17.20;11.45;;;16.10;99.90;;;;;;5036753;28;20037;-83
2023/05/22 07:10:26;;;;;;;17.80;11.98;;;16.10;99.90;;;;;;5068106;28;20048;-84
2023/05/22 07:12:53;;;;;;;21.42;13.50;;;16.10;99.90;;;;;;5086038;28;20532;-84
2023/05/22 07:15:20;;;;;;;18.00;11.60;;;16.10;99.90;;;;;;5069842;28;20045;-84
2023/05/22 07:17:47;;;;;;;23.98;12.27;;;16.20;99.90;;;;;;5069691;28;20043;-84
2023/05/22 07:20:14;;;;;;;18.33;12.95;;;16.20;99.90;;;;;;5056862;28;20037;-85
2023/05/22 07:22:42;;;;;;;15.60;11.50;;;16.20;99.90;;;;;;5073562;28;20455;-80
2023/05/22 07:25:09;;;;;;;17.10;11.48;;;16.30;99.90;;;;;;5072025;28;20071;-84
2023/05/22 07:27:36;;;;;;;17.55;10.80;;;16.30;99.90;;;;;;5071849;28;20094;-84
2023/05/22 07:30:09;;;;;;;16.45;11.15;;;16.30;99.90;;;;;;5089669;28;20080;-88
2023/05/22 07:32:36;;;;;;;17.80;11.23;;;16.30;99.90;;;;;;5071896;28;20051;-82
2023/05/22 07:35:03;;;;;;;15.63;11.30;;;16.40;99.90;;;;;;5071686;28;20036;-82
2023/05/22 07:37:30;;;;;;;19.33;10.85;;;16.40;99.90;;;;;;5072398;28;20826;-83
2023/05/22 07:39:57;;;;;;;19.23;11.18;;;16.40;99.90;;;;;;5066967;28;20033;-83
2023/05/22 07:42:24;;;;;;;21.30;11.13;;;16.40;99.90;;;;;;5052447;28;20037;-83
2023/05/22 07:44:51;;;;;;;16.60;11.43;;;16.50;99.90;;;;;;5036443;28;20099;-82
2023/05/22 07:47:18;;;;;;;19.45;11.13;;;16.50;99.90;;;;;;5070590;28;20040;-83
2023/05/22 07:49:44;;;;;;;16.00;10.43;;;16.60;99.90;;;;;;5072117;28;20069;-82
2023/05/22 07:52:11;;;;;;;15.65;10.13;;;16.60;99.90;;;;;;5055910;28;20560;-83
2023/05/22 07:54:38;;;;;;;18.13;10.35;;;16.70;99.90;;;;;;5039512;28;20091;-83
2023/05/22 07:57:06;;;;;;;26.27;10.50;;;16.80;99.90;;;;;;5072220;28;20665;-83
2023/05/22 07:59:34;;;;;;;17.23;10.38;;;16.90;99.90;;;;;;5040021;28;20079;-82
2023/05/22 08:02:01;;;;;;;20.15;10.52;;;17.00;99.90;;;;;;5055585;28;20088;-83
2023/05/22 08:04:28;;;;;;;18.77;10.80;;;17.00;99.90;;;;;;5073482;28;20404;-83
2023/05/22 08:06:56;;;;;;;23.85;10.48;;;17.10;99.90;;;;;;5075861;28;20070;-83
2023/05/22 08:09:22;;;;;;;21.40;10.73;;;17.10;99.90;;;;;;5075646;28;20044;-82
2023/05/22 08:11:49;;;;;;;19.17;9.82;;;17.10;99.90;;;;;;5059336;28;20040;-83
2023/05/22 08:14:16;;;;;;;19.17;10.30;;;17.10;99.90;;;;;;5075531;28;20496;-82
2023/05/22 08:16:42;;;;;;;16.23;10.05;;;17.00;99.90;;;;;;5091494;28;20048;-83
2023/05/22 08:19:09;;;;;;;15.77;10.18;;;17.00;99.90;;;;;;5075651;28;20028;-82
2023/05/22 08:21:36;;;;;;;19.65;10.10;;;17.00;99.90;;;;;;5058796;28;20099;-82
2023/05/22 08:24:03;;;;;;;15.10;9.60;;;17.00;99.90;;;;;;5074792;28;20186;-82
2023/05/22 08:26:32;;;;;;;15.43;9.50;;;17.10;99.90;;;;;;5075666;28;20049;-82
2023/05/22 08:28:59;;;;;;;16.80;10.13;;;17.20;99.90;;;;;;5076190;28;20033;-82
2023/05/22 08:31:28;;;;;;;16.98;10.20;;;17.20;99.90;;;;;;5075487;28;20484;-82
2023/05/22 08:34:01;;;;;;;17.50;9.63;;;17.30;99.90;;;;;;5058931;28;20047;-82
2023/05/22 08:36:30;;;;;;;17.02;9.43;;;17.40;99.90;;;;;;5076039;28;20064;-82
2023/05/22 08:38:56;;;;;;;20.17;9.80;;;17.40;99.90;;;;;;5108060;28;20485;-82
2023/05/22 08:41:23;;;;;;;15.30;9.35;;;17.40;99.90;;;;;;5071936;28;20033;-82
2023/05/22 08:43:50;;;;;;;18.77;9.85;;;17.40;99.90;;;;;;5071293;28;20072;-83
2023/05/22 08:46:18;;;;;;;13.68;8.98;;;17.40;99.90;;;;;;5088276;28;20044;-83
2023/05/22 08:48:46;;;;;;;16.38;9.60;;;17.40;99.90;;;;;;5071728;28;20106;-82
2023/05/22 08:51:18;;;;;;;17.52;10.30;;;17.50;99.90;;;;;;5088493;28;20076;-82
2023/05/22 08:53:45;;;;;;;21.23;10.30;;;17.50;99.90;;;;;;5057692;28;20124;-82
2023/05/22 08:56:12;;;;;;;19.10;10.02;;;17.50;99.90;;;;;;5091379;28;20169;-83
2023/05/22 08:58:40;;;;;;;15.73;9.15;;;17.40;99.90;;;;;;5057635;28;20805;-83
2023/05/22 09:01:07;;;;;;;19.30;10.40;;;17.40;99.90;;;;;;5074249;28;20504;-83
2023/05/22 09:03:35;;;;;;;19.00;9.80;;;17.40;99.90;;;;;;5059039;28;20127;-82
2023/05/22 09:06:02;;;;;;;20.33;10.45;;;17.40;99.90;;;;;;5071114;28;20045;-82
2023/05/22 09:08:29;;;;;;;16.65;9.68;;;17.40;99.90;;;;;;5071118;28;20036;-82
2023/05/22 09:10:56;;;;;;;16.60;9.68;;;17.40;99.90;;;;;;5054616;28;20440;-82
2023/05/22 09:13:26;;;;;;;22.65;10.20;;;17.40;99.90;;;;;;5063385;28;20036;-82
2023/05/22 09:15:57;;;;;;;23.38;10.43;;;17.30;99.90;;;;;;5107334;28;20409;-82
2023/05/22 09:18:28;;;;;;;19.83;10.60;;;17.30;99.90;;;;;;5090733;28;20044;-83
2023/05/22 09:20:58;;;;;;;22.60;10.48;;;17.30;99.90;;;;;;5057900;28;20386;-82
2023/05/22 09:23:27;;;;;;;22.02;8.95;;;17.30;99.90;;;;;;5090478;28;20535;-82
2023/05/22 09:25:58;;;;;;;18.48;9.60;;;17.20;99.90;;;;;;5090845;28;20080;-82
2023/05/22 09:28:26;;;;;;;22.98;9.68;;;17.20;99.90;;;;;;5074503;28;20047;-82
2023/05/22 09:30:54;;;;;;;24.83;10.27;;;17.10;99.90;;;;;;5073817;28;20040;-82
2023/05/22 09:33:23;;;;;;;21.23;9.85;;;17.10;99.90;;;;;;5103273;28;20048;-82
2023/05/22 09:35:54;;;;;;;23.80;10.05;;;17.00;99.90;;;;;;5087034;28;20033;-82
2023/05/22 09:38:22;;;;;;;27.02;9.70;;;17.00;99.90;;;;;;5074150;28;20036;-82
2023/05/22 09:40:53;;;;;;;23.25;10.05;;;17.00;99.90;;;;;;5060793;28;20115;-82
2023/05/22 09:43:22;;;;;;;24.00;10.40;;;16.90;99.90;;;;;;5054456;28;20045;-82
2023/05/22 09:45:54;;;;;;;23.70;9.90;;;17.00;99.90;;;;;;5067556;28;20041;-82
2023/05/22 09:48:21;;;;;;;26.63;10.35;;;17.00;99.90;;;;;;5081178;28;20045;-83
2023/05/22 09:50:49;;;;;;;23.00;10.35;;;16.90;99.90;;;;;;5072038;28;20051;-82
2023/05/22 09:53:17;;;;;;;21.42;9.88;;;17.00;99.90;;;;;;5090262;28;20120;-83
2023/05/22 09:55:47;;;;;;;23.42;9.90;;;17.00;99.90;;;;;;5070167;28;20052;-82
2023/05/22 09:58:18;;;;;;;25.75;10.60;;;17.00;99.90;;;;;;5069960;28;20075;-83
2023/05/22 10:00:47;;;;;;;22.40;10.60;;;17.10;99.90;;;;;;5053662;28;20037;-83
2023/05/22 10:03:17;;;;;;;23.92;10.25;;;17.10;99.90;;;;;;5069868;28;20128;-82
2023/05/22 10:05:51;;;;;;;24.33;9.82;;;17.10;99.90;;;;;;5038399;28;20114;-82
2023/05/22 10:08:23;;;;;;;27.60;10.73;;;17.20;99.90;;;;;;5088105;28;20048;-82
2023/05/22 10:10:54;;;;;;;24.30;11.00;;;17.10;99.90;;;;;;5089541;28;20408;-82
2023/05/22 10:13:22;;;;;;;27.35;10.52;;;17.20;99.90;;;;;;5089854;28;20049;-82
2023/05/22 10:15:50;;;;;;;22.73;10.65;;;17.20;99.90;;;;;;5073414;28;20042;-83
2023/05/22 10:18:17;;;;;;;20.38;11.15;;;17.30;99.90;;;;;;5089380;28;20033;-82
2023/05/22 10:20:45;;;;;;;30.58;11.80;;;17.40;99.90;;;;;;5072998;28;20044;-81
2023/05/22 10:23:15;;;;;;;23.50;11.80;;;17.50;99.90;;;;;;5105981;28;20527;-82
2023/05/22 10:25:42;;;;;;;22.40;11.35;;;17.50;99.90;;;;;;5090039;28;20048;-82
2023/05/22 10:28:23;;;;;;;24.27;10.95;;;17.70;99.90;;;;;;5063272;28;20045;-82
2023/05/22 10:31:04;;;;;;;24.10;11.85;;;17.80;99.90;;;;;;5069756;28;20095;-82
2023/05/22 10:33:58;;;;;;;23.73;11.35;;;17.90;99.90;;;;;;5100800;28;20047;-82
2023/05/22 10:36:52;;;;;;;19.80;11.15;;;17.90;99.90;;;;;;5075398;28;20413;-82
2023/05/22 10:39:30;;;;;;;20.35;10.32;;;18.00;99.90;;;;;;5083625;28;20088;-82
2023/05/22 10:41:57;;;;;;;20.38;10.73;;;18.00;99.90;;;;;;5086296;28;20143;-82
2023/05/22 10:44:24;;;;;;;16.95;11.13;;;18.20;99.90;;;;;;5073988;28;20037;-82
2023/05/22 10:46:51;;;;;;;21.70;12.35;;;18.20;99.90;;;;;;5047085;28;20040;-82
2023/05/22 10:49:22;;;;;;;23.60;11.80;;;18.30;99.90;;;;;;5072344;28;20036;-82
2023/05/22 10:51:55;;;;;;;16.50;12.38;;;18.40;99.90;;;;;;5067074;28;20091;-82
2023/05/22 10:54:38;;;;;;;17.88;11.77;;;18.50;99.90;;;;;;5065561;28;20124;-83
2023/05/22 10:57:16;;;;;;;23.67;12.70;;;18.60;99.90;;;;;;5069259;28;20043;-82
2023/05/22 10:59:45;;;;;;;19.35;12.63;;;18.70;99.90;;;;;;5078867;28;20064;-82
2023/05/22 11:02:20;;;;;;;19.17;12.02;;;18.80;99.90;;;;;;5071626;28;20107;-81
2023/05/22 11:04:47;;;;;;;18.73;12.82;;;18.90;99.90;;;;;;5085486;28;20049;-81
2023/05/22 11:07:14;;;;;;;18.83;12.73;;;19.00;99.90;;;;;;5068127;28;20486;-81
2023/05/22 11:09:44;;;;;;;19.10;13.15;;;19.30;99.90;;;;;;5068638;28;20047;-81
2023/05/22 11:12:21;;;;;;;18.70;12.00;;;19.40;99.90;;;;;;5076858;28;20102;-81
2023/05/22 11:14:51;;;;;;;19.15;12.43;;;19.60;99.90;;;;;;5105601;28;20037;-81
2023/05/22 11:17:22;;;;;;;18.98;12.15;;;19.60;99.90;;;;;;5088709;28;20097;-82
2023/05/22 11:20:01;;;;;;;17.48;12.80;;;19.70;99.90;;;;;;5088977;28;20041;-82
2023/05/22 11:22:39;;;;;;;17.85;12.50;;;19.70;99.90;;;;;;5089412;28;20127;-82
2023/05/22 11:25:09;;;;;;;18.02;12.77;;;19.60;99.90;;;;;;5070373;28;20123;-82
2023/05/22 11:27:39;;;;;;;16.23;12.52;;;19.60;99.90;;;;;;5080071;28;20060;-82
2023/05/22 11:30:07;;;;;;;18.00;13.63;;;19.60;99.90;;;;;;5074859;28;20052;-82
2023/05/22 11:32:39;;;;;;;18.38;12.63;;;19.70;99.90;;;;;;5072927;28;20128;-82
2023/05/22 11:35:09;;;;;;;15.70;12.60;;;19.80;99.90;;;;;;5089310;28;20033;-81
2023/05/22 11:37:39;;;;;;;16.40;12.55;;;20.10;99.90;;;;;;5073004;28;20421;-82
2023/05/22 11:40:07;;;;;;;16.50;13.32;;;20.30;99.90;;;;;;5059993;28;20123;-82
2023/05/22 11:42:34;;;;;;;20.92;13.32;;;20.50;99.90;;;;;;5067360;28;20062;-82
2023/05/22 11:45:03;;;;;;;17.48;12.60;;;20.60;99.90;;;;;;5090875;28;20028;-82
2023/05/22 11:47:30;;;;;;;18.25;13.45;;;20.60;99.90;;;;;;5072433;28;20041;-82
2023/05/22 11:49:58;;;;;;;20.38;13.30;;;20.70;99.90;;;;;;5085982;28;20049;-82
2023/05/22 11:52:28;;;;;;;16.10;12.75;;;20.60;99.90;;;;;;5044389;28;20058;-82
2023/05/22 11:54:55;;;;;;;18.55;14.25;;;20.60;99.90;;;;;;5073115;28;20047;-82
2023/05/22 11:57:22;;;;;;;16.25;13.57;;;20.60;99.90;;;;;;5063140;28;20032;-82
2023/05/22 11:59:49;;;;;;;17.38;13.23;;;20.70;99.90;;;;;;5066747;28;20114;-82
2023/05/22 12:02:16;;;;;;;17.88;13.80;;;20.80;99.90;;;;;;5071505;28;20123;-82
2023/05/22 12:04:44;;;;;;;17.27;13.65;;;20.90;99.90;;;;;;5072269;28;20455;-82
2023/05/22 12:07:10;;;;;;;19.25;13.25;;;21.00;99.90;;;;;;5039165;28;20041;-82
2023/05/22 12:09:41;;;;;;;17.67;13.63;;;21.20;99.90;;;;;;5055414;28;20049;-86
2023/05/22 12:12:10;;;;;;;20.10;13.40;;;21.20;99.90;;;;;;5056062;28;20078;-86
2023/05/22 12:14:37;;;;;;;16.48;13.10;;;21.30;99.90;;;;;;5085811;28;20508;-85
2023/05/22 12:17:03;;;;;;;17.00;13.30;;;21.50;99.90;;;;;;5095589;28;20044;-86
2023/05/22 12:19:31;;;;;;;16.20;12.30;;;21.70;99.90;;;;;;5058814;28;20052;-86
2023/05/22 12:21:58;;;;;;;16.85;12.85;;;21.90;99.90;;;;;;5095968;28;20049;-86
2023/05/22 12:24:25;;;;;;;15.88;12.55;;;22.10;99.90;;;;;;5089121;28;20043;-86
2023/05/22 12:26:52;;;;;;;18.83;12.27;;;22.30;99.90;;;;;;5040303;28;20033;-86
2023/05/22 12:29:21;;;;;;;18.25;12.63;;;22.40;99.90;;;;;;5071841;28;20048;-86
2023/05/22 12:31:48;;;;;;;17.42;12.38;;;22.60;99.90;;;;;;5071348;28;20076;-83
2023/05/22 12:34:17;;;;;;;16.08;11.93;;;22.60;99.90;;;;;;5087157;28;20124;-85